createdAt,value
2023-03-24T00:00:26.935Z,7.07
2023-03-24T00:02:54.011Z,5.95
2023-03-24T00:05:23.441Z,4.90
2023-03-24T00:07:54.784Z,8.50
2023-03-24T00:10:23.249Z,3.72
2023-03-24T00:12:51.812Z,7.03
2023-03-24T00:15:21.420Z,6.57
2023-03-24T00:17:52.728Z,5.35
2023-03-24T00:20:22.821Z,6.22
2023-03-24T00:22:57.038Z,7.75
2023-03-24T00:25:28.548Z,7.13
2023-03-24T00:27:57.554Z,5.82
2023-03-24T00:30:26.114Z,5.65
2023-03-24T00:32:54.228Z,5.10
2023-03-24T00:35:22.622Z,5.72
2023-03-24T00:37:51.876Z,4.95
2023-03-24T00:40:21.046Z,4.97
2023-03-24T00:42:50.621Z,5.45
2023-03-24T00:45:23.253Z,6.95
2023-03-24T00:47:54.628Z,3.70
2023-03-24T00:50:26.598Z,7.07
2023-03-24T00:52:55.736Z,6.15
2023-03-24T00:55:23.141Z,6.82
2023-03-24T00:57:51.240Z,7.22
2023-03-24T01:00:25.885Z,8.90
2023-03-24T01:02:56.810Z,11.20
2023-03-24T01:05:29.731Z,3.72
2023-03-24T01:07:59.352Z,5.18
2023-03-24T01:10:30.258Z,6.50
2023-03-24T01:13:00.331Z,7.60
2023-03-24T01:15:33.878Z,4.57
2023-03-24T01:18:04.656Z,5.93
2023-03-24T01:20:33.246Z,6.05
2023-03-24T01:23:02.552Z,6.40
2023-03-24T01:25:30.623Z,6.07
2023-03-24T01:27:58.040Z,5.65
2023-03-24T01:30:27.979Z,4.68
2023-03-24T01:32:55.925Z,5.82
2023-03-24T01:35:28.474Z,4.07
2023-03-24T01:37:57.049Z,6.82
2023-03-24T01:40:29.531Z,5.30
2023-03-24T01:42:57.796Z,8.05
2023-03-24T01:45:42.244Z,3.78
2023-03-24T01:48:37.806Z,5.72
2023-03-24T01:51:15.620Z,7.00
2023-03-24T01:54:08.476Z,6.30
2023-03-24T01:56:40.017Z,5.22
2023-03-24T01:59:15.156Z,4.72
2023-03-24T02:02:06.721Z,5.40
2023-03-24T02:04:50.451Z,3.67
2023-03-24T02:07:34.781Z,3.97
2023-03-24T02:10:09.570Z,4.50
2023-03-24T02:12:37.193Z,6.30
2023-03-24T02:15:08.939Z,3.90
2023-03-24T02:18:01.962Z,4.35
2023-03-24T02:20:38.366Z,5.80
2023-03-24T02:23:17.323Z,5.72
2023-03-24T02:26:26.507Z,4.25
2023-03-24T02:28:59.050Z,3.80
2023-03-24T02:32:02.001Z,3.83
2023-03-24T02:35:15.651Z,4.97
2023-03-24T02:38:23.892Z,8.82
2023-03-24T02:41:32.259Z,2.97
2023-03-24T02:45:11.750Z,3.85
2023-03-24T02:47:56.578Z,5.03
2023-03-24T02:50:36.772Z,4.60
2023-03-24T02:53:28.346Z,4.70
2023-03-24T02:56:49.064Z,4.90
2023-03-24T02:59:59.275Z,4.90
2023-03-24T03:03:28.568Z,4.03
2023-03-24T03:06:07.444Z,3.13
2023-03-24T03:08:36.787Z,6.40
2023-03-24T03:11:07.425Z,3.67
2023-03-24T03:13:51.094Z,6.88
2023-03-24T03:16:29.093Z,4.38
2023-03-24T03:19:01.610Z,2.83
2023-03-24T03:21:36.568Z,2.35
2023-03-24T03:24:20.045Z,2.67
2023-03-24T03:26:49.128Z,1.58
2023-03-24T03:29:23.260Z,1.50
2023-03-24T03:32:01.045Z,2.40
2023-03-24T03:34:54.756Z,2.63
2023-03-24T03:37:36.574Z,2.35
2023-03-24T03:40:14.952Z,1.00
2023-03-24T03:42:47.083Z,3.55
2023-03-24T03:45:14.648Z,2.35
2023-03-24T03:47:42.494Z,3.22
2023-03-24T03:50:10.302Z,1.65
2023-03-24T03:52:41.681Z,6.07
2023-03-24T03:55:09.505Z,2.83
2023-03-24T03:57:36.735Z,1.30
2023-03-24T04:00:26.465Z,3.00
2023-03-24T04:03:53.163Z,2.50
2023-03-24T04:06:57.480Z,2.90
2023-03-24T04:09:32.978Z,2.95
2023-03-24T04:12:25.071Z,3.20
2023-03-24T04:15:37.099Z,1.55
2023-03-24T04:18:51.054Z,2.92
2023-03-24T04:21:48.682Z,1.58
2023-03-24T04:24:42.533Z,4.57
2023-03-24T04:27:21.995Z,12.23
2023-03-24T04:30:45.478Z,7.80
2023-03-24T04:36:17.265Z,8.38
2023-03-24T04:39:25.610Z,4.95
2023-03-24T04:41:55.011Z,9.73
2023-03-24T04:44:26.918Z,9.52
2023-03-24T04:47:33.477Z,4.38
2023-03-24T04:50:13.200Z,8.18
2023-03-24T04:52:42.618Z,3.83
2023-03-24T04:55:49.607Z,5.68
2023-03-24T04:58:23.659Z,7.10
2023-03-24T05:00:51.716Z,7.57
2023-03-24T05:03:19.522Z,13.30
2023-03-24T05:05:49.144Z,5.70
2023-03-24T05:08:18.018Z,16.63
2023-03-24T05:10:46.463Z,15.52
2023-03-24T05:13:14.703Z,4.53
2023-03-24T05:15:54.255Z,7.50
2023-03-24T05:18:47.715Z,12.73
2023-03-24T05:21:14.823Z,11.40
2023-03-24T05:23:41.842Z,9.43
2023-03-24T05:26:09.244Z,12.35
2023-03-24T05:28:49.466Z,12.25
2023-03-24T05:31:16.624Z,10.65
2023-03-24T05:33:48.788Z,18.00
2023-03-24T05:36:18.720Z,17.30
2023-03-24T05:38:53.949Z,9.82
2023-03-24T05:41:22.582Z,8.70
2023-03-24T05:43:49.670Z,14.38
2023-03-24T05:46:17.821Z,12.23
2023-03-24T05:48:47.037Z,15.98
2023-03-24T05:51:16.654Z,11.18
2023-03-24T05:53:45.214Z,18.30
2023-03-24T05:56:18.290Z,13.82
2023-03-24T05:59:12.039Z,16.05
2023-03-24T06:02:05.752Z,10.23
2023-03-24T06:04:46.501Z,17.75
2023-03-24T06:07:16.677Z,17.02
2023-03-24T06:09:52.554Z,16.88
2023-03-24T06:12:21.797Z,14.48
2023-03-24T06:15:01.456Z,17.98
2023-03-24T06:17:32.337Z,13.93
2023-03-24T06:20:13.742Z,17.17
2023-03-24T06:23:10.494Z,14.40
2023-03-24T06:26:03.984Z,21.45
2023-03-24T06:28:34.490Z,17.38
2023-03-24T06:31:07.176Z,13.95
2023-03-24T06:33:36.749Z,24.98
2023-03-24T06:36:05.534Z,14.70
2023-03-24T06:38:33.553Z,11.85
2023-03-24T06:41:03.608Z,20.83
2023-03-24T06:43:32.249Z,11.10
2023-03-24T06:46:00.170Z,17.08
2023-03-24T06:48:28.590Z,16.20
2023-03-24T06:51:02.508Z,17.13
2023-03-24T06:53:29.658Z,11.40
2023-03-24T06:55:56.941Z,14.45
2023-03-24T06:58:26.346Z,13.73
2023-03-24T07:01:07.430Z,20.55
2023-03-24T07:03:36.701Z,12.32
2023-03-24T07:06:18.509Z,11.30
2023-03-24T07:08:52.368Z,18.83
2023-03-24T07:11:21.783Z,14.27
2023-03-24T07:13:53.265Z,17.10
2023-03-24T07:16:20.855Z,11.07
2023-03-24T07:18:54.840Z,8.55
2023-03-24T07:21:22.191Z,16.48
2023-03-24T07:23:51.757Z,15.93
2023-03-24T07:26:27.387Z,11.75
2023-03-24T07:28:58.706Z,8.90
2023-03-24T07:31:48.882Z,11.95
2023-03-24T07:34:16.284Z,9.25
2023-03-24T07:36:44.268Z,15.07
2023-03-24T07:39:16.724Z,9.93
2023-03-24T07:41:44.083Z,9.35
2023-03-24T07:44:29.747Z,11.93
2023-03-24T07:47:00.724Z,11.82
2023-03-24T07:49:27.881Z,9.95
2023-03-24T07:52:06.733Z,11.90
2023-03-24T07:54:45.603Z,10.48
2023-03-24T07:57:35.428Z,15.48
2023-03-24T08:00:21.650Z,11.85
2023-03-24T08:03:01.977Z,9.90
2023-03-24T08:05:48.951Z,8.95
2023-03-24T08:08:20.401Z,11.02
2023-03-24T08:10:50.461Z,8.80
2023-03-24T08:13:18.233Z,13.23
2023-03-24T08:15:45.695Z,10.18
2023-03-24T08:18:12.902Z,13.02
2023-03-24T08:20:39.986Z,9.73
2023-03-24T08:23:08.586Z,7.55
2023-03-24T08:25:36.521Z,11.32
2023-03-24T08:28:04.439Z,14.07
2023-03-24T08:30:32.094Z,7.25
2023-03-24T08:33:02.707Z,15.77
2023-03-24T08:35:33.637Z,18.52
2023-03-24T08:38:03.137Z,10.45
2023-03-24T08:40:34.583Z,11.55
2023-03-24T08:43:04.882Z,10.13
2023-03-24T08:45:32.899Z,11.25
2023-03-24T08:48:05.036Z,11.00
2023-03-24T08:50:37.763Z,13.77
2023-03-24T08:53:05.038Z,14.43
2023-03-24T08:55:32.362Z,14.20
2023-03-24T08:58:00.130Z,10.77
2023-03-24T09:00:28.907Z,11.15
2023-03-24T09:02:56.988Z,8.48
2023-03-24T09:05:40.784Z,13.48
2023-03-24T09:08:12.614Z,9.82
2023-03-24T09:10:41.754Z,8.93
2023-03-24T09:13:09.507Z,10.82
2023-03-24T09:15:36.907Z,16.20
2023-03-24T09:18:04.246Z,6.88
2023-03-24T09:20:31.343Z,13.25
2023-03-24T09:23:01.066Z,6.55
2023-03-24T09:25:28.563Z,10.90
2023-03-24T09:27:56.971Z,7.38
2023-03-24T09:30:24.165Z,8.60
2023-03-24T09:32:51.223Z,15.60
2023-03-24T09:35:18.312Z,8.52
2023-03-24T09:37:45.603Z,8.85
2023-03-24T09:40:39.649Z,7.70
2023-03-24T09:43:26.384Z,9.82
2023-03-24T09:45:57.627Z,10.52
2023-03-24T09:48:49.795Z,10.15
2023-03-24T09:51:33.360Z,7.32
2023-03-24T09:54:27.327Z,4.68
2023-03-24T09:56:56.024Z,13.75
2023-03-24T09:59:28.788Z,5.70
2023-03-24T10:01:57.756Z,10.82
2023-03-24T10:04:28.178Z,7.72
2023-03-24T10:07:39.840Z,4.65
2023-03-24T10:10:31.293Z,7.45
2023-03-24T10:13:17.774Z,5.53
2023-03-24T10:15:55.927Z,6.05
2023-03-24T10:18:40.394Z,9.65
2023-03-24T10:21:25.925Z,9.63
2023-03-24T10:24:21.645Z,4.78
2023-03-24T10:27:23.386Z,9.55
2023-03-24T10:29:56.427Z,7.53
2023-03-24T10:32:27.484Z,9.23
2023-03-24T10:35:09.507Z,4.57
2023-03-24T10:37:37.591Z,9.65
2023-03-24T10:40:18.739Z,3.30
2023-03-24T10:42:48.967Z,6.93
2023-03-24T10:45:27.525Z,13.75
2023-03-24T10:47:59.011Z,12.00
2023-03-24T10:50:29.218Z,7.93
2023-03-24T10:52:57.504Z,8.07
2023-03-24T10:55:38.977Z,4.18
2023-03-24T10:58:29.700Z,8.73
2023-03-24T11:00:59.637Z,6.18
2023-03-24T11:03:36.969Z,8.88
2023-03-24T11:06:05.772Z,12.65
2023-03-24T11:08:39.692Z,8.65
2023-03-24T11:11:24.840Z,6.25
2023-03-24T11:14:02.217Z,13.07
2023-03-24T11:16:38.855Z,9.82
2023-03-24T11:19:20.259Z,5.85
2023-03-24T11:21:52.350Z,10.02
2023-03-24T11:24:20.895Z,9.00
2023-03-24T11:27:03.849Z,8.20
2023-03-24T11:29:39.057Z,12.40
2023-03-24T11:32:21.027Z,9.93
2023-03-24T11:35:06.855Z,11.63
2023-03-24T11:37:36.218Z,7.93
2023-03-24T11:40:26.151Z,6.57
2023-03-24T11:43:00.456Z,10.25
2023-03-24T11:45:42.692Z,5.75
2023-03-24T11:48:21.608Z,5.85
2023-03-24T11:50:49.113Z,5.10
2023-03-24T11:53:22.421Z,4.18
2023-03-24T11:56:07.345Z,2.60
2023-03-24T11:58:50.445Z,3.65
2023-03-24T12:01:31.024Z,5.40
2023-03-24T12:04:29.657Z,2.63
2023-03-24T12:07:57.414Z,7.57
2023-03-24T12:11:19.795Z,3.97
2023-03-24T12:13:50.405Z,3.78
2023-03-24T12:16:56.950Z,5.20
2023-03-24T12:19:37.067Z,2.17
2023-03-24T12:22:15.392Z,4.13
2023-03-24T12:25:19.301Z,5.55
2023-03-24T12:28:10.697Z,7.63
2023-03-24T12:31:25.347Z,8.30
2023-03-24T12:34:33.735Z,6.13
2023-03-24T12:37:27.279Z,7.65
2023-03-24T12:40:06.280Z,5.95
2023-03-24T12:42:42.644Z,5.40
2023-03-24T12:46:00.309Z,7.43
2023-03-24T12:49:10.958Z,2.38
2023-03-24T12:52:15.315Z,5.40
2023-03-24T12:55:04.894Z,5.20
2023-03-24T12:57:45.315Z,7.78
2023-03-24T13:00:20.753Z,4.30
2023-03-24T13:03:01.840Z,5.82
2023-03-24T13:05:37.592Z,3.97
2023-03-24T13:10:42.200Z,6.47
2023-03-24T13:13:22.835Z,6.20
2023-03-24T13:15:57.482Z,4.07
2023-03-24T13:18:49.026Z,3.53
2023-03-24T13:21:22.250Z,5.70
2023-03-24T13:24:11.053Z,5.55
2023-03-24T13:27:00.910Z,8.55
2023-03-24T13:29:50.859Z,2.13
2023-03-24T13:32:32.281Z,4.80
2023-03-24T13:35:19.783Z,11.40
2023-03-24T13:38:14.854Z,3.85
2023-03-24T13:40:43.733Z,5.53
2023-03-24T13:43:16.435Z,6.30
2023-03-24T13:45:49.392Z,8.00
2023-03-24T13:48:27.648Z,4.05
2023-03-24T13:51:02.872Z,11.60
2023-03-24T13:53:40.408Z,3.97
2023-03-24T13:56:09.128Z,5.45
2023-03-24T13:59:24.549Z,6.55
2023-03-24T14:02:17.705Z,3.30
2023-03-24T14:05:27.688Z,5.82
2023-03-24T14:08:01.082Z,4.63
2023-03-24T14:10:45.931Z,5.78
2023-03-24T14:13:12.799Z,6.75
2023-03-24T14:15:51.687Z,6.82
2023-03-24T14:18:26.044Z,5.18
2023-03-24T14:20:56.404Z,7.57
2023-03-24T14:23:42.984Z,2.65
2023-03-24T14:26:16.438Z,6.35
2023-03-24T14:28:46.858Z,7.55
2023-03-24T14:31:15.682Z,5.90
2023-03-24T14:34:02.235Z,4.65
2023-03-24T14:36:32.844Z,4.80
2023-03-24T14:39:47.293Z,4.22
2023-03-24T14:42:33.666Z,4.30
2023-03-24T14:45:22.224Z,7.90
2023-03-24T14:48:00.066Z,3.15
2023-03-24T14:50:29.008Z,3.92
2023-03-24T14:53:02.659Z,2.47
2023-03-24T14:55:30.943Z,7.25
2023-03-24T14:58:23.858Z,3.40
2023-03-24T15:03:58.210Z,2.35
2023-03-24T15:06:25.352Z,3.33
2023-03-24T15:08:56.610Z,3.53
2023-03-24T15:11:31.051Z,3.85
2023-03-24T15:14:00.157Z,7.30
2023-03-24T15:16:34.123Z,1.55
2023-03-24T15:19:29.747Z,2.50
2023-03-24T15:22:09.544Z,7.45
2023-03-24T15:24:38.392Z,2.92
2023-03-24T15:27:08.369Z,2.70
2023-03-24T15:29:38.626Z,5.75
2023-03-24T15:32:06.489Z,7.35
2023-03-24T15:34:40.996Z,2.00
2023-03-24T15:37:40.639Z,0.40
2023-03-24T15:40:30.430Z,2.45
2023-03-24T15:43:01.269Z,2.85
2023-03-24T15:45:38.401Z,1.70
2023-03-24T15:48:14.872Z,1.08
2023-03-24T15:51:00.538Z,1.92
2023-03-24T15:53:49.217Z,2.70
2023-03-24T15:56:27.813Z,1.58
2023-03-24T15:59:03.903Z,13.60
2023-03-24T16:01:31.683Z,5.10
2023-03-24T16:04:05.273Z,3.63
2023-03-24T16:06:37.165Z,6.88
2023-03-24T16:09:13.823Z,3.80
2023-03-24T16:11:42.212Z,7.05
2023-03-24T16:14:30.174Z,3.65
2023-03-24T16:17:03.822Z,1.60
2023-03-24T16:19:31.010Z,4.88
2023-03-24T16:21:58.183Z,6.22
2023-03-24T16:24:25.456Z,2.80
2023-03-24T16:26:52.657Z,5.07
2023-03-24T16:29:22.839Z,7.13
2023-03-24T16:31:55.674Z,4.70
2023-03-24T16:34:23.402Z,5.40
2023-03-24T16:36:54.274Z,5.20
2023-03-24T16:39:24.985Z,6.20
2023-03-24T16:41:52.384Z,9.40
2023-03-24T16:44:21.058Z,3.72
2023-03-24T16:46:52.057Z,7.60
2023-03-24T16:49:19.932Z,3.38
2023-03-24T16:51:47.742Z,4.53
2023-03-24T16:54:15.077Z,2.42
2023-03-24T16:56:42.520Z,2.25
2023-03-24T16:59:10.642Z,3.33
2023-03-24T17:01:45.341Z,2.65
2023-03-24T17:04:19.392Z,4.05
2023-03-24T17:06:52.897Z,3.10
2023-03-24T17:09:21.035Z,3.88
2023-03-24T17:11:54.433Z,3.95
2023-03-24T17:14:22.212Z,6.70
2023-03-24T17:16:51.272Z,3.60
2023-03-24T17:19:21.563Z,8.43
2023-03-24T17:22:03.771Z,4.07
2023-03-24T17:24:38.087Z,6.72
2023-03-24T17:27:17.905Z,4.35
2023-03-24T17:29:46.356Z,5.55
2023-03-24T17:32:13.410Z,3.42
2023-03-24T17:34:43.062Z,6.07
2023-03-24T17:37:10.332Z,6.03
2023-03-24T17:39:39.172Z,7.45
2023-03-24T17:42:06.316Z,5.78
2023-03-24T17:44:33.775Z,4.90
2023-03-24T17:47:00.963Z,6.15
2023-03-24T17:49:28.376Z,2.00
2023-03-24T17:51:55.509Z,3.88
2023-03-24T17:54:22.558Z,5.65
2023-03-24T17:56:49.585Z,5.40
2023-03-24T17:59:17.167Z,9.45
2023-03-24T18:01:44.320Z,4.13
2023-03-24T18:04:11.525Z,7.13
2023-03-24T18:06:38.742Z,6.85
2023-03-24T18:09:06.684Z,8.02
2023-03-24T18:11:33.796Z,3.35
2023-03-24T18:14:01.143Z,4.90
2023-03-24T18:16:31.808Z,4.53
2023-03-24T18:19:00.600Z,4.88
2023-03-24T18:21:28.604Z,6.40
2023-03-24T18:23:56.263Z,5.35
2023-03-24T18:26:23.918Z,10.13
2023-03-24T18:28:51.501Z,4.57
2023-03-24T18:31:21.313Z,5.75
2023-03-24T18:33:49.561Z,7.00
2023-03-24T18:36:26.609Z,5.25
2023-03-24T18:39:04.521Z,8.00
2023-03-24T18:41:32.240Z,5.75
2023-03-24T18:44:00.106Z,4.25
2023-03-24T18:46:27.758Z,7.15
2023-03-24T18:48:55.721Z,4.43
2023-03-24T18:51:25.414Z,11.25
2023-03-24T18:53:52.753Z,6.68
2023-03-24T18:56:21.889Z,7.13
2023-03-24T18:58:51.178Z,4.75
2023-03-24T19:01:22.706Z,3.60
2023-03-24T19:03:54.730Z,7.50
2023-03-24T19:06:22.962Z,10.48
2023-03-24T19:08:52.224Z,7.88
2023-03-24T19:11:19.468Z,5.95
2023-03-24T19:13:49.843Z,7.38
2023-03-24T19:16:19.048Z,5.70
2023-03-24T19:18:48.544Z,8.20
2023-03-24T19:21:16.921Z,5.80
2023-03-24T19:23:46.622Z,6.93
2023-03-24T19:26:16.148Z,6.68
2023-03-24T19:28:43.859Z,6.15
2023-03-24T19:31:17.433Z,6.35
2023-03-24T19:33:45.202Z,6.07
2023-03-24T19:36:12.390Z,5.22
2023-03-24T19:38:40.165Z,5.47
2023-03-24T19:41:11.199Z,4.60
2023-03-24T19:43:38.578Z,2.08
2023-03-24T19:46:06.596Z,4.25
2023-03-24T19:48:34.549Z,7.03
2023-03-24T19:51:01.799Z,4.57
2023-03-24T19:53:28.936Z,3.97
2023-03-24T19:55:58.217Z,7.63
2023-03-24T19:58:25.808Z,1.88
2023-03-24T20:00:53.352Z,4.10
2023-03-24T20:03:20.924Z,4.07
2023-03-24T20:05:49.258Z,5.15
2023-03-24T20:08:16.705Z,6.32
2023-03-24T20:10:43.888Z,3.67
2023-03-24T20:13:11.426Z,2.40
2023-03-24T20:15:38.549Z,4.70
2023-03-24T20:18:06.807Z,4.13
2023-03-24T20:20:33.901Z,7.63
2023-03-24T20:23:00.962Z,4.45
2023-03-24T20:25:28.767Z,2.13
2023-03-24T20:27:55.975Z,7.97
2023-03-24T20:30:24.151Z,9.57
2023-03-24T20:32:56.303Z,4.57
2023-03-24T20:35:23.760Z,4.05
2023-03-24T20:37:50.839Z,6.40
2023-03-24T20:40:17.952Z,6.32
2023-03-24T20:42:44.877Z,3.45
2023-03-24T20:45:12.385Z,5.25
2023-03-24T20:47:39.366Z,6.45
2023-03-24T20:50:07.353Z,4.35
2023-03-24T20:52:34.962Z,5.18
2023-03-24T20:55:05.611Z,4.93
2023-03-24T20:57:33.711Z,3.40
2023-03-24T21:00:01.202Z,4.13
2023-03-24T21:02:28.759Z,5.53
2023-03-24T21:04:56.131Z,4.38
2023-03-24T21:07:23.677Z,2.22
2023-03-24T21:09:51.292Z,3.10
2023-03-24T21:12:18.592Z,2.67
2023-03-24T21:14:47.039Z,4.90
2023-03-24T21:17:20.607Z,7.03
2023-03-24T21:19:48.044Z,2.95
2023-03-24T21:22:15.482Z,3.35
2023-03-24T21:24:43.047Z,3.10
2023-03-24T21:27:10.845Z,4.13
2023-03-24T21:29:38.386Z,2.28
2023-03-24T21:32:06.141Z,1.63
2023-03-24T21:34:33.767Z,3.53
2023-03-24T21:37:01.608Z,1.48
2023-03-24T21:39:29.317Z,4.45
2023-03-24T21:41:56.663Z,5.05
2023-03-24T21:44:25.055Z,5.85
2023-03-24T21:46:52.425Z,2.20
2023-03-24T21:49:22.775Z,4.05
2023-03-24T21:51:54.791Z,5.93
2023-03-24T21:54:22.820Z,4.18
2023-03-24T21:56:50.286Z,3.25
2023-03-24T21:59:17.870Z,4.22
2023-03-24T22:01:45.338Z,4.47
2023-03-24T22:04:13.608Z,6.05
2023-03-24T22:06:40.842Z,8.18
2023-03-24T22:09:10.207Z,5.20
2023-03-24T22:11:42.622Z,4.55
2023-03-24T22:14:10.652Z,7.05
2023-03-24T22:16:38.012Z,5.75
2023-03-24T22:19:05.782Z,4.68
2023-03-24T22:21:33.229Z,4.60
2023-03-24T22:24:00.390Z,2.47
2023-03-24T22:26:27.623Z,6.00
2023-03-24T22:28:56.372Z,4.82
2023-03-24T22:31:24.352Z,4.47
2023-03-24T22:33:51.875Z,1.75
2023-03-24T22:36:19.237Z,4.85
2023-03-24T22:38:46.783Z,2.45
2023-03-24T22:41:14.277Z,4.05
2023-03-24T22:43:42.323Z,4.70
2023-03-24T22:46:12.836Z,5.85
2023-03-24T22:48:40.497Z,4.13
2023-03-24T22:51:09.285Z,2.15
2023-03-24T22:53:36.862Z,3.00
2023-03-24T22:56:06.443Z,2.30
2023-03-24T22:58:35.837Z,5.10
2023-03-24T23:01:03.884Z,7.57
2023-03-24T23:03:31.076Z,7.32
2023-03-24T23:06:03.425Z,4.68
2023-03-24T23:08:32.475Z,5.47
2023-03-24T23:11:00.794Z,4.25
2023-03-24T23:13:30.863Z,3.85
2023-03-24T23:15:58.264Z,4.93
2023-03-24T23:18:25.615Z,3.58
2023-03-24T23:21:07.242Z,7.50
2023-03-24T23:23:36.273Z,3.15
2023-03-24T23:26:05.729Z,3.20
2023-03-24T23:28:34.390Z,2.13
2023-03-24T23:31:01.801Z,3.15
2023-03-24T23:33:29.210Z,4.70
2023-03-24T23:35:58.701Z,3.67
2023-03-24T23:38:26.574Z,2.65
2023-03-24T23:40:53.751Z,3.65
2023-03-24T23:43:21.482Z,6.15
2023-03-24T23:45:48.840Z,7.85
2023-03-24T23:48:16.635Z,7.88
2023-03-24T23:50:49.352Z,3.97
2023-03-24T23:53:16.616Z,5.72
2023-03-24T23:55:43.803Z,6.95
2023-03-24T23:58:11.057Z,4.65
